DGMMC EDVK-EDLW

Flight info

Callsign DGMMC
Flight time N/A
Altitude 4000
Route VFR
Aircraft DA42/L-V/N

Departure

Time 2026-04-23 15:21
Airport Kassel Airport (EDVK)

Arrival

Time N/A
Airport Dortmund Airport (EDLW)
Time Latitude Longitude Altitude Speed Heading
2026-04-23 15:09 51.41758 9.39481 839 ft 0 kts 352°
2026-04-23 15:17 51.41759 9.39480 839 ft 1 kts 351°
2026-04-23 15:17 51.41778 9.39508 837 ft 8 kts 67°
2026-04-23 15:17 51.41790 9.39608 839 ft 10 kts 98°
2026-04-23 15:18 51.41776 9.39738 839 ft 12 kts 69°
2026-04-23 15:18 51.41846 9.39775 839 ft 10 kts
2026-04-23 15:18 51.41885 9.39853 839 ft 11 kts 94°
2026-04-23 15:18 51.41879 9.39999 838 ft 15 kts 93°
2026-04-23 15:19 51.41867 9.40180 836 ft 16 kts 95°
2026-04-23 15:19 51.41900 9.40264 835 ft 8 kts
2026-04-23 15:19 51.41917 9.40259 834 ft 0 kts 336°
2026-04-23 15:19 51.41929 9.40243 834 ft 7 kts 311°
2026-04-23 15:20 51.41969 9.40147 835 ft 18 kts 301°
2026-04-23 15:20 51.42018 9.40005 835 ft 11 kts 295°
2026-04-23 15:20 51.42049 9.39752 840 ft 44 kts 276°
2026-04-23 15:20 51.42071 9.39054 946 ft 72 kts 275°
2026-04-23 15:21 51.42105 9.38187 1198 ft 84 kts 276°
2026-04-23 15:21 51.42325 9.37297 1458 ft 91 kts 314°
2026-04-23 15:21 51.42863 9.36823 1823 ft 87 kts 333°
2026-04-23 15:21 51.43446 9.36425 1987 ft 101 kts 332°
2026-04-23 15:22 51.44144 9.35843 1995 ft 124 kts 332°
2026-04-23 15:22 51.44948 9.35167 1993 ft 135 kts 332°
2026-04-23 15:22 51.45806 9.34448 1994 ft 143 kts 332°
2026-04-23 15:22 51.46675 9.33719 1990 ft 141 kts 332°
2026-04-23 15:23 51.47526 9.33002 1996 ft 135 kts 332°
2026-04-23 15:23 51.48349 9.32307 1983 ft 131 kts 332°
2026-04-23 15:23 51.49149 9.31635 1980 ft 129 kts 332°
2026-04-23 15:23 51.49955 9.30968 1992 ft 132 kts 332°
2026-04-23 15:24 51.50780 9.30281 1994 ft 136 kts 331°
2026-04-23 15:24 51.51565 9.29474 1986 ft 130 kts 308°
2026-04-23 15:24 51.51690 9.28082 2003 ft 137 kts 254°
2026-04-23 15:24 51.51144 9.26775 1992 ft 139 kts 255°
2026-04-23 15:25 51.51037 9.25278 1995 ft 139 kts 272°
2026-04-23 15:25 51.51007 9.23718 1990 ft 141 kts 272°
2026-04-23 15:25 51.50981 9.22145 1990 ft 140 kts 272°
2026-04-23 15:25 51.50949 9.20575 1994 ft 142 kts 273°
2026-04-23 15:26 51.50915 9.18996 1992 ft 140 kts 273°
2026-04-23 15:26 51.50887 9.17457 2069 ft 134 kts 274°
2026-04-23 15:26 51.50846 9.16077 2445 ft 116 kts 273°
2026-04-23 15:26 51.50810 9.14794 2587 ft 115 kts 273°
2026-04-23 15:27 51.50770 9.13505 2731 ft 116 kts 272°
2026-04-23 15:27 51.50740 9.12211 2899 ft 117 kts 273°
2026-04-23 15:27 51.50697 9.10886 2945 ft 126 kts 273°
2026-04-23 15:27 51.50664 9.09425 2943 ft 136 kts 272°
2026-04-23 15:28 51.50517 9.07888 2936 ft 145 kts 249°
2026-04-23 15:28 51.49999 9.06464 2946 ft 150 kts 244°
2026-04-23 15:28 51.49455 9.05024 2933 ft 150 kts 244°
2026-04-23 15:28 51.48913 9.03612 2938 ft 148 kts 244°
2026-04-23 15:29 51.48369 9.02197 2950 ft 151 kts 244°
2026-04-23 15:29 51.48093 9.00602 2942 ft 148 kts 272°
2026-04-23 15:29 51.48078 8.98963 2941 ft 146 kts 274°
2026-04-23 15:29 51.48058 8.97360 2950 ft 142 kts 274°
2026-04-23 15:30 51.48043 8.95753 2958 ft 144 kts 275°
2026-04-23 15:30 51.48027 8.94123 2945 ft 145 kts 274°
2026-04-23 15:30 51.48005 8.92529 2964 ft 143 kts 274°
2026-04-23 15:30 51.47990 8.90908 2951 ft 146 kts 273°
2026-04-23 15:31 51.47977 8.89282 2962 ft 147 kts 273°
2026-04-23 15:31 51.47957 8.87670 2956 ft 145 kts 274°
2026-04-23 15:31 51.47939 8.86056 2951 ft 143 kts 273°
2026-04-23 15:31 51.47923 8.84556 3189 ft 126 kts 274°
2026-04-23 15:32 51.47896 8.83157 3314 ft 127 kts 272°
2026-04-23 15:32 51.47876 8.81736 3522 ft 127 kts 274°
2026-04-23 15:32 51.47846 8.80317 3741 ft 128 kts 274°
2026-04-23 15:32 51.47822 8.78876 3794 ft 130 kts 274°
2026-04-23 15:33 51.47797 8.77425 3875 ft 130 kts 271°
2026-04-23 15:33 51.47799 8.75955 3954 ft 137 kts 272°
2026-04-23 15:33 51.47800 8.74371 3951 ft 146 kts 272°
2026-04-23 15:33 51.47800 8.72712 3951 ft 150 kts 272°
2026-04-23 15:34 51.47800 8.71021 3960 ft 153 kts 272°
2026-04-23 15:34 51.47807 8.69290 3949 ft 155 kts 272°
2026-04-23 15:34 51.47805 8.67587 3953 ft 154 kts 272°
2026-04-23 15:34 51.47805 8.65873 3952 ft 152 kts 272°
2026-04-23 15:35 51.47804 8.64174 3972 ft 155 kts 273°
2026-04-23 15:35 51.47797 8.62407 3957 ft 159 kts 274°
2026-04-23 15:35 51.47783 8.60666 3953 ft 153 kts 273°
2026-04-23 15:35 51.47771 8.58978 3956 ft 149 kts 273°
2026-04-23 15:36 51.47755 8.57334 3954 ft 146 kts 274°
2026-04-23 15:36 51.47735 8.55684 3963 ft 151 kts 274°
2026-04-23 15:36 51.47715 8.54000 3959 ft 151 kts 274°
2026-04-23 15:36 51.47692 8.52321 3970 ft 151 kts 274°
2026-04-23 15:37 51.47674 8.50604 3972 ft 157 kts 274°
2026-04-23 15:37 51.47658 8.48870 3953 ft 155 kts 274°
2026-04-23 15:37 51.47646 8.47158 3956 ft 152 kts 274°
2026-04-23 15:37 51.47630 8.45478 3958 ft 151 kts 274°
2026-04-23 15:38 51.47608 8.43789 3964 ft 152 kts 273°
2026-04-23 15:38 51.47179 8.42244 3962 ft 161 kts 225°
2026-04-23 15:38 51.46133 8.41679 3959 ft 165 kts 175°
2026-04-23 15:38 51.45011 8.42041 3958 ft 163 kts 159°
2026-04-23 15:39 51.44147 8.43083 4271 ft 147 kts 136°
2026-04-23 15:39 51.43432 8.44063 4889 ft 122 kts 136°
2026-04-23 15:39 51.42844 8.44874 5424 ft 109 kts 135°
2026-04-23 15:39 51.42260 8.45676 5804 ft 111 kts 135°
2026-04-23 15:40 51.41665 8.46490 6205 ft 111 kts 135°
2026-04-23 15:40 51.41136 8.47341 6582 ft 106 kts 107°
2026-04-23 15:40 51.41309 8.48294 6944 ft 95 kts 30°
2026-04-23 15:40 51.42059 8.48480 6967 ft 124 kts
2026-04-23 15:41 51.42997 8.48552 6973 ft 144 kts
2026-04-23 15:41 51.44047 8.48645 6965 ft 155 kts
2026-04-23 15:41 51.45141 8.48747 6972 ft 160 kts
2026-04-23 15:41 51.46263 8.48904 6963 ft 162 kts 14°
2026-04-23 15:42 51.47133 8.49980 6972 ft 165 kts 57°
2026-04-23 15:42 51.47681 8.51607 6975 ft 166 kts 54°
2026-04-23 15:42 51.48406 8.53051 6963 ft 166 kts 46°
2026-04-23 15:42 51.49189 8.54402 6962 ft 164 kts 45°
2026-04-23 15:43 51.49963 8.55722 6962 ft 163 kts 45°
2026-04-23 15:43 51.50740 8.57057 6962 ft 163 kts 45°
2026-04-23 15:43 51.51513 8.58388 6965 ft 164 kts 45°
2026-04-23 15:43 51.52291 8.59729 6967 ft 164 kts 45°
2026-04-23 15:44 51.53074 8.61078 6966 ft 165 kts 45°
2026-04-23 15:44 51.53857 8.62429 6967 ft 165 kts 45°
2026-04-23 15:44 51.54644 8.63784 6972 ft 167 kts 46°
2026-04-23 15:44 51.55429 8.65142 6965 ft 164 kts 45°
2026-04-23 15:45 51.56198 8.66470 6994 ft 159 kts 45°
2026-04-23 15:45 51.56942 8.67755 7051 ft 157 kts 45°
2026-04-23 15:45 51.57689 8.69047 7038 ft 158 kts 45°
2026-04-23 15:45 51.58439 8.70343 7049 ft 159 kts 45°
2026-04-23 15:46 51.59196 8.71654 7049 ft 162 kts 46°
2026-04-23 15:46 51.59966 8.72990 7039 ft 162 kts 45°
2026-04-23 15:46 51.60721 8.74297 7039 ft 161 kts 45°
2026-04-23 15:46 51.61484 8.75620 7041 ft 162 kts 46°
2026-04-23 15:47 51.62249 8.76946 7043 ft 162 kts 46°
2026-04-23 15:47 51.63013 8.78274 7039 ft 161 kts 45°
2026-04-23 15:47 51.63778 8.79600 7037 ft 161 kts 46°
2026-04-23 15:47 51.64535 8.80918 7037 ft 159 kts 46°
2026-04-23 15:48 51.65287 8.82224 7037 ft 159 kts 46°
2026-04-23 15:48 51.66037 8.83527 7041 ft 159 kts 45°
2026-04-23 15:48 51.66790 8.84838 7039 ft 160 kts 45°
2026-04-23 15:48 51.67547 8.86157 7035 ft 160 kts 46°
2026-04-23 15:49 51.68303 8.87473 7035 ft 159 kts 46°
2026-04-23 15:49 51.69053 8.88781 7031 ft 159 kts 45°
2026-04-23 15:49 51.69803 8.90088 7030 ft 159 kts 45°
2026-04-23 15:49 51.70552 8.91395 7032 ft 159 kts 45°
2026-04-23 15:50 51.71309 8.92717 7039 ft 161 kts 46°
2026-04-23 15:50 51.72069 8.94044 7028 ft 161 kts 46°
2026-04-23 15:50 51.72831 8.95377 7034 ft 162 kts 46°
2026-04-23 15:50 51.73598 8.96716 7025 ft 162 kts 46°
2026-04-23 15:51 51.74361 8.98050 7034 ft 161 kts 46°
2026-04-23 15:51 51.75126 8.99389 7029 ft 163 kts 46°
2026-04-23 15:51 51.75883 9.00716 7023 ft 163 kts 46°
2026-04-23 15:51 51.76652 9.02065 7024 ft 164 kts 46°
2026-04-23 15:52 51.77424 9.03421 7016 ft 164 kts 46°
2026-04-23 15:52 51.78193 9.04766 7018 ft 162 kts 46°
2026-04-23 15:52 51.78959 9.06109 7014 ft 162 kts 46°
2026-04-23 15:52 51.79723 9.07452 7015 ft 162 kts 46°
2026-04-23 15:53 51.80485 9.08792 7009 ft 162 kts 46°
2026-04-23 15:53 51.81248 9.10131 7017 ft 162 kts 46°
2026-04-23 15:53 51.82011 9.11476 7011 ft 162 kts 46°
2026-04-23 15:53 51.82778 9.12821 7010 ft 163 kts 46°
2026-04-23 15:54 51.83544 9.14173 7013 ft 163 kts 46°
2026-04-23 15:54 51.84313 9.15528 7005 ft 164 kts 46°
2026-04-23 15:54 51.85080 9.16880 7006 ft 162 kts 46°
2026-04-23 15:54 51.85845 9.18229 7008 ft 163 kts 46°
2026-04-23 15:55 51.86614 9.19584 7003 ft 163 kts 46°
2026-04-23 15:55 51.87376 9.20934 7002 ft 161 kts 46°
2026-04-23 15:55 51.88130 9.22264 7001 ft 160 kts 46°
2026-04-23 15:55 51.88878 9.23584 6999 ft 159 kts 46°
2026-04-23 15:56 51.89621 9.24899 7006 ft 158 kts 46°
2026-04-23 15:56 51.90367 9.26217 7004 ft 159 kts 46°
2026-04-23 15:56 51.91117 9.27547 7006 ft 160 kts 46°
2026-04-23 15:56 51.91871 9.28882 7000 ft 160 kts 46°
2026-04-23 15:57 51.92614 9.30198 7000 ft 160 kts 46°
2026-04-23 15:57 51.93362 9.31523 7004 ft 160 kts 46°
2026-04-23 15:57 51.94114 9.32858 7004 ft 160 kts 46°
2026-04-23 15:57 51.94865 9.34192 7008 ft 160 kts 46°
2026-04-23 15:58 51.95608 9.35514 7004 ft 155 kts 46°
2026-04-23 15:58 51.96323 9.36784 6824 ft 151 kts 46°
2026-04-23 15:58 51.97027 9.38033 6570 ft 149 kts 46°
2026-04-23 15:58 51.97720 9.39265 6309 ft 147 kts 46°
2026-04-23 15:59 51.98405 9.40484 6058 ft 146 kts 46°
2026-04-23 15:59 51.98857 9.41289 5881 ft 146 kts 46°
2026-04-23 15:59 51.99541 9.42507 5630 ft 146 kts 46°
2026-04-23 15:59 52.00223 9.43721 5370 ft 145 kts 46°
2026-04-23 16:00 52.00902 9.44933 5125 ft 145 kts 46°
2026-04-23 16:00 52.01808 9.46550 4782 ft 147 kts 46°
2026-04-23 16:00 52.02272 9.47379 4604 ft 147 kts 46°
2026-04-23 16:00 52.02962 9.48610 4347 ft 148 kts 46°
2026-04-23 16:01 52.03656 9.49850 4088 ft 149 kts 46°
2026-04-23 16:01 52.04352 9.51093 3828 ft 148 kts 46°
2026-04-23 16:01 52.05035 9.52315 3583 ft 146 kts 45°
2026-04-23 16:01 52.05726 9.53543 3509 ft 146 kts 46°
2026-04-23 16:02 52.06398 9.54746 3493 ft 144 kts 46°
2026-04-23 16:02 52.07066 9.55949 3490 ft 143 kts 46°
2026-04-23 16:02 52.07732 9.57141 3500 ft 143 kts 45°
2026-04-23 16:02 52.08409 9.58357 3501 ft 146 kts 45°
2026-04-23 16:03 52.09093 9.59580 3496 ft 147 kts 45°
2026-04-23 16:03 52.09779 9.60812 3499 ft 147 kts 45°
2026-04-23 16:03 52.10470 9.62053 3490 ft 148 kts 45°
2026-04-23 16:03 52.11151 9.63276 3489 ft 144 kts 45°
2026-04-23 16:04 52.11801 9.64448 3497 ft 136 kts 45°
2026-04-23 16:04 52.12430 9.65576 3462 ft 135 kts 45°
2026-04-23 16:04 52.13072 9.66733 3288 ft 139 kts 45°
2026-04-23 16:04 52.13727 9.67905 3043 ft 143 kts 45°
2026-04-23 16:05 52.14395 9.69109 2777 ft 143 kts 45°
2026-04-23 16:05 52.15061 9.70308 2530 ft 143 kts 46°
2026-04-23 16:05 52.15696 9.71455 2492 ft 129 kts 46°
2026-04-23 16:05 52.16274 9.72501 2494 ft 121 kts 45°
2026-04-23 16:06 52.16828 9.73498 2496 ft 116 kts 44°
2026-04-23 16:06 52.17375 9.74481 2496 ft 119 kts 45°
2026-04-23 16:06 52.17941 9.75500 2501 ft 125 kts 44°
2026-04-23 16:06 52.18522 9.76550 2482 ft 124 kts 45°
2026-04-23 16:07 52.19094 9.77584 2489 ft 123 kts 44°
2026-04-23 16:07 52.19658 9.78605 2490 ft 120 kts 45°
2026-04-23 16:07 52.20210 9.79612 2489 ft 118 kts 45°
2026-04-23 16:07 52.20757 9.80612 2485 ft 118 kts 44°
2026-04-23 16:08 52.21303 9.81619 2494 ft 121 kts 45°
2026-04-23 16:08 52.21862 9.82634 2489 ft 119 kts 45°
2026-04-23 16:08 52.22409 9.83627 2487 ft 117 kts 45°
2026-04-23 16:08 52.22955 9.84613 2489 ft 117 kts 45°
2026-04-23 16:09 52.23506 9.85606 2484 ft 119 kts 45°
2026-04-23 16:09 52.24052 9.86578 2487 ft 117 kts 45°
2026-04-23 16:09 52.24594 9.87561 2488 ft 115 kts 45°
2026-04-23 16:09 52.25131 9.88525 2487 ft 114 kts 44°
2026-04-23 16:10 52.25724 9.89325 2488 ft 108 kts 20°
2026-04-23 16:10 52.26441 9.89610 2495 ft 105 kts
2026-04-23 16:10 52.27183 9.89628 2498 ft 108 kts 354°
2026-04-23 16:10 52.27929 9.89421 2501 ft 109 kts 346°
2026-04-23 16:11 52.28662 9.89073 2494 ft 109 kts 343°
2026-04-23 16:11 52.29373 9.88665 2446 ft 108 kts 342°
2026-04-23 16:11 52.30108 9.88245 2347 ft 115 kts 342°
2026-04-23 16:11 52.30859 9.87818 2239 ft 115 kts 342°
2026-04-23 16:12 52.31653 9.87773 2142 ft 115 kts
2026-04-23 16:12 52.32448 9.87935 2037 ft 115 kts
2026-04-23 16:12 52.33242 9.88105 1993 ft 116 kts
2026-04-23 16:12 52.34040 9.88323 1984 ft 114 kts 12°
2026-04-23 16:13 52.34773 9.88696 1984 ft 107 kts 16°
2026-04-23 16:13 52.36188 9.89428 1979 ft 104 kts 18°
2026-04-23 16:13 52.36862 9.89866 1991 ft 105 kts 19°
2026-04-23 16:14 52.37541 9.90289 1995 ft 107 kts 17°
2026-04-23 16:14 52.38265 9.90315 1992 ft 108 kts 334°
2026-04-23 16:14 52.38967 9.89847 1993 ft 111 kts 333°
2026-04-23 16:14 52.39618 9.89157 1989 ft 111 kts 327°
2026-04-23 16:15 52.40198 9.88335 1985 ft 107 kts 319°
2026-04-23 16:15 52.40703 9.87545 1982 ft 96 kts 319°
2026-04-23 16:15 52.41190 9.86785 1987 ft 96 kts 319°
2026-04-23 16:15 52.41696 9.85994 1994 ft 109 kts 319°
2026-04-23 16:16 52.42264 9.85110 1986 ft 115 kts 319°
2026-04-23 16:16 52.42840 9.84141 2045 ft 119 kts 307°
2026-04-23 16:16 52.43320 9.82957 1995 ft 134 kts 302°
2026-04-23 16:16 52.43737 9.81604 1849 ft 136 kts 297°
2026-04-23 16:17 52.44122 9.80188 1595 ft 133 kts 296°
2026-04-23 16:17 52.44469 9.78829 1299 ft 127 kts 292°
2026-04-23 16:17 52.44765 9.77510 1194 ft 121 kts 292°
2026-04-23 16:17 52.45063 9.76206 900 ft 117 kts 293°
2026-04-23 16:18 52.45247 9.75096 709 ft 92 kts 281°
2026-04-23 16:18 52.45312 9.74027 617 ft 97 kts 277°
2026-04-23 16:18 52.45353 9.72904 494 ft 99 kts 273°
2026-04-23 16:18 52.45370 9.71852 329 ft 86 kts 277°
2026-04-23 16:19 52.45404 9.70930 207 ft 77 kts 278°
2026-04-23 16:19 52.45431 9.70200 176 ft 49 kts 271°
2026-04-23 16:19 52.45442 9.69722 178 ft 44 kts 270°
2026-04-23 16:19 52.45456 9.69271 180 ft 32 kts 273°
2026-04-23 16:20 52.45500 9.69133 181 ft 11 kts 353°
2026-04-23 16:20 52.45549 9.69131 179 ft 0 kts 11°
2026-04-23 16:20 52.45574 9.69136 178 ft 6 kts
2026-04-23 16:20 52.45647 9.69144 176 ft 15 kts
2026-04-23 16:21 52.45747 9.69134 174 ft 14 kts 340°
2026-04-23 16:21 52.45848 9.69008 173 ft 22 kts 324°
2026-04-23 16:21 52.45963 9.68944 171 ft 16 kts 14°
2026-04-23 16:21 52.46058 9.68896 172 ft 14 kts 324°
2026-04-23 16:22 52.46148 9.68780 173 ft 19 kts 322°
2026-04-23 16:22 52.46248 9.68765 175 ft 14 kts 50°
2026-04-23 16:22 52.46295 9.68947 175 ft 23 kts 69°
2026-04-23 16:22 52.46361 9.69224 177 ft 21 kts 65°
2026-04-23 16:23 52.46313 9.69296 175 ft 13 kts 140°
2026-04-23 16:23 52.46339 9.69388 177 ft 0 kts 342°